Terminal Aerodrome Forecast
Issued by NWS Sterling, VA

Current Version | Previous Version | Graphics & Text | Print | Product List | Glossary On
Versions: 1 2 3 4 5 6 7 8 9 10 11 12 13 14 15 16 17 18 19 20
000
FTUS41 KLWX 291100
TAFMRB
TAF
KMRB 291132Z 2912/3012 VRB03KT P6SM FEW250
     FM291500 15007KT P6SM OVC090
     FM291900 16010G18KT 3SM -FZRAPL BKN025 OVC050
     FM292200 17010KT P6SM SCT025 OVC050
     FM300200 20007KT P6SM BKN050
     FM300700 29010G18KT P6SM BKN050=

USA.gov is the U.S. government's official web portal to all federal, state and local government web resources and services.